Terminal Aerodrome Forecast
Issued by NWS St Louis, MO

Home | Current Version | Previous Version | Text Only | Print | Product List | Glossary On
Versions: 1 2 3 4 5 6 7 8 9 10 11 12 13 14 15 16 17 18
853
FTUS43 KLSX 270017 AAA
TAFCOU
TAF AMD
KCOU 270017Z 2700/2724 33011G17KT 4SM RA OVC006
      TEMPO 2700/2703 1 1/2SM RA BR
     FM270700 30010G16KT P6SM VCSH OVC010
     FM270900 29010KT P6SM OVC020
     FM271200 28009KT P6SM SCT030
     FM272200 24006KT P6SM BKN110=

USA.gov is the U.S. government's official web portal to all federal, state and local government web resources and services.